Time,TemperatureF,DewpointF,PressureIn,WindDirection,WindDirectionDegrees,WindSpeedMPH,WindSpeedGustMPH,Humidity,HourlyPrecipIn,Conditions,Clouds,dailyrainin,SoftwareType,DateUTC
2013-09-14 00:00:00,44.0,40.0,-100.00,WSW,252,5.0,11.0,86,-99.99,,,-99.99,,2013-09-14 06:00:00,
2013-09-14 00:52:00,44.0,40.0,-100.00,WSW,252,5.0,11.0,86,-99.99,,,-99.99,,2013-09-14 06:52:00,
2013-09-14 01:00:00,43.0,40.0,-100.00,SW,223,3.0,13.0,90,-99.99,,,-99.99,,2013-09-14 07:00:00,
2013-09-14 01:52:00,43.0,40.0,-100.00,SW,223,3.0,13.0,90,-99.99,,,-99.99,,2013-09-14 07:52:00,
2013-09-14 02:00:00,41.0,40.0,-100.00,NNE,24,2.0,7.0,96,-99.99,,,-99.99,,2013-09-14 08:00:00,
2013-09-14 02:52:00,41.0,40.0,-100.00,NNE,24,2.0,7.0,96,-99.99,,,-99.99,,2013-09-14 08:52:00,
2013-09-14 03:00:00,41.0,39.0,-100.00,NW,322,1.0,3.0,94,-99.99,,,-99.99,,2013-09-14 09:00:00,
2013-09-14 03:53:00,41.0,39.0,-100.00,NW,322,1.0,3.0,94,-99.99,,,-99.99,,2013-09-14 09:53:00,
2013-09-14 04:00:00,41.0,39.0,-100.00,SW,219,1.0,3.0,94,-99.99,,,-99.99,,2013-09-14 10:00:00,
2013-09-14 04:53:00,41.0,39.0,-100.00,SW,219,1.0,3.0,94,-99.99,,,-99.99,,2013-09-14 10:53:00,
2013-09-14 05:00:00,40.0,39.0,-100.00,ESE,108,2.0,5.0,96,-99.99,,,-99.99,,2013-09-14 11:00:00,
2013-09-14 05:52:00,40.0,39.0,-100.00,ESE,108,2.0,5.0,96,-99.99,,,-99.99,,2013-09-14 11:52:00,
2013-09-14 06:00:00,39.0,38.0,-100.00,NW,305,1.0,3.0,96,-99.99,,,-99.99,,2013-09-14 12:00:00,
2013-09-14 06:52:00,39.0,38.0,-100.00,NW,305,1.0,3.0,96,-99.99,,,-99.99,,2013-09-14 12:52:00,
2013-09-14 07:00:00,40.0,39.0,-100.00,North,5,2.0,4.0,96,-99.99,,,-99.99,,2013-09-14 13:00:00,
2013-09-14 07:52:00,40.0,39.0,-100.00,North,5,2.0,4.0,96,-99.99,,,-99.99,,2013-09-14 13:52:00,
2013-09-14 08:00:00,40.0,39.0,-100.00,NW,321,2.0,5.0,95,-99.99,,,-99.99,,2013-09-14 14:00:00,
2013-09-14 08:52:00,40.0,39.0,-100.00,NW,321,2.0,5.0,95,-99.99,,,-99.99,,2013-09-14 14:52:00,
2013-09-14 09:00:00,42.0,41.0,-100.00,SE,127,1.0,4.0,95,-99.99,,,-99.99,,2013-09-14 15:00:00,
2013-09-14 09:53:00,42.0,41.0,-100.00,SE,127,1.0,4.0,95,-99.99,,,-99.99,,2013-09-14 15:53:00,
2013-09-14 10:00:00,44.0,42.0,-100.00,SSW,205,3.0,11.0,92,-99.99,,,-99.99,,2013-09-14 16:00:00,
2013-09-14 10:54:00,44.0,42.0,-100.00,SSW,205,3.0,11.0,92,-99.99,,,-99.99,,2013-09-14 16:54:00,
2013-09-14 11:00:00,46.0,42.0,-100.00,SW,215,4.0,13.0,86,-99.99,,,-99.99,,2013-09-14 17:00:00,
2013-09-14 11:54:00,46.0,42.0,-100.00,SW,215,4.0,13.0,86,-99.99,,,-99.99,,2013-09-14 17:54:00,
2013-09-14 12:00:00,43.0,41.0,-100.00,SW,223,7.0,25.0,93,-99.99,,,-99.99,,2013-09-14 18:00:00,
2013-09-14 12:52:00,43.0,41.0,-100.00,SW,223,7.0,25.0,93,-99.99,,,-99.99,,2013-09-14 18:52:00,
2013-09-14 13:00:00,38.0,37.0,-100.00,WSW,246,3.0,12.0,96,-99.99,,,-99.99,,2013-09-14 19:00:00,
2013-09-14 13:52:00,38.0,37.0,-100.00,WSW,246,3.0,12.0,96,-99.99,,,-99.99,,2013-09-14 19:52:00,
2013-09-14 14:00:00,38.0,37.0,-100.00,ENE,63,3.0,5.0,96,-99.99,,,-99.99,,2013-09-14 20:00:00,
2013-09-14 14:52:00,38.0,37.0,-100.00,ENE,63,3.0,5.0,96,-99.99,,,-99.99,,2013-09-14 20:52:00,
2013-09-14 15:00:00,41.0,39.0,-100.00,ENE,70,3.0,7.0,92,-99.99,,,-99.99,,2013-09-14 21:00:00,
2013-09-14 15:54:00,41.0,39.0,-100.00,ENE,70,3.0,7.0,92,-99.99,,,-99.99,,2013-09-14 21:54:00,
2013-09-14 16:00:00,45.0,41.0,-100.00,ENE,71,3.0,6.0,84,-99.99,,,-99.99,,2013-09-14 22:00:00,
2013-09-14 16:53:00,45.0,41.0,-100.00,ENE,71,3.0,6.0,84,-99.99,,,-99.99,,2013-09-14 22:53:00,
2013-09-14 17:00:00,48.0,42.0,-100.00,ENE,57,2.0,5.0,79,-99.99,,,-99.99,,2013-09-14 23:00:00,
2013-09-14 17:53:00,48.0,42.0,-100.00,ENE,57,2.0,5.0,79,-99.99,,,-99.99,,2013-09-14 23:53:00,
2013-09-14 18:00:00,48.0,42.0,-100.00,SE,138,2.0,8.0,78,-99.99,,,-99.99,,2013-09-15 00:00:00,
2013-09-14 18:53:00,48.0,42.0,-100.00,SE,138,2.0,8.0,78,-99.99,,,-99.99,,2013-09-15 00:53:00,
2013-09-14 19:00:00,46.0,42.0,-100.00,WSW,249,5.0,12.0,86,-99.99,,,-99.99,,2013-09-15 01:00:00,
2013-09-14 19:52:00,46.0,42.0,-100.00,WSW,249,5.0,12.0,86,-99.99,,,-99.99,,2013-09-15 01:52:00,
2013-09-14 20:00:00,43.0,40.0,-100.00,WSW,256,6.0,18.0,89,-99.99,,,-99.99,,2013-09-15 02:00:00,
2013-09-14 20:52:00,43.0,40.0,-100.00,WSW,256,6.0,18.0,89,-99.99,,,-99.99,,2013-09-15 02:52:00,
2013-09-14 21:00:00,-999.0,-99.9,-100.00,NW,311,3.0,9.0,-999,-99.99,,,-99.99,,2013-09-15 03:00:00,
2013-09-14 21:55:00,42.0,39.0,-100.00,NW,311,3.0,9.0,89,-99.99,,,-99.99,,2013-09-15 03:55:00,
2013-09-14 22:00:00,41.0,39.0,-100.00,WNW,287,3.0,10.0,89,-99.99,,,-99.99,,2013-09-15 04:00:00,
2013-09-14 22:54:00,41.0,39.0,-100.00,WNW,287,3.0,10.0,89,-99.99,,,-99.99,,2013-09-15 04:54:00,
2013-09-14 23:00:00,39.0,38.0,-100.00,NE,34,2.0,6.0,95,-99.99,,,-99.99,,2013-09-15 05:00:00,
2013-09-14 23:52:00,39.0,38.0,-100.00,NE,34,2.0,6.0,95,-99.99,,,-99.99,,2013-09-15 05:52:00,